Eureka の空港の天気 - METARとTAF

Eureka ( CWEU / ) - カナダ ヌナブト準州Eureka
飛行場実況気象(Metar)
観測時間10/19 22:00 CDT (10/20 03:00 UTC)
風向・風速南南東 2m/s
視程10km以上
天気現象弱い雪
全天を覆う雲 雲底高度 300m
気温-16℃
湿度85%
気圧1026.3hPa
METARCWEU 200300Z 15003KT 050V170 15SM -SN OVC010 M16/M18 A3030 RMK SC8 LAST STFD OBS/NEXT 200600Z SLP263
過去の天気等 Google飛行場航空写真 Wunderground天気予報

過去48時間のMETAR

飛行場予報(TAF)
データがありません